sensor_id;sensor_type;location;lat;lon;timestamp;P1;durP1;ratioP1;P2;durP2;ratioP2
29938;SDS011;16799;50.844;5.304;2023-03-12T00:02:09;25.80;;;6.83;;
29938;SDS011;16799;50.844;5.304;2023-03-12T00:04:34;7.97;;;6.63;;
29938;SDS011;16799;50.844;5.304;2023-03-12T00:07:00;9.17;;;5.83;;
29938;SDS011;16799;50.844;5.304;2023-03-12T00:09:27;12.40;;;5.20;;
29938;SDS011;16799;50.844;5.304;2023-03-12T00:11:52;14.30;;;5.10;;
29938;SDS011;16799;50.844;5.304;2023-03-12T00:14:18;11.03;;;6.60;;
29938;SDS011;16799;50.844;5.304;2023-03-12T00:16:44;7.57;;;5.00;;
29938;SDS011;16799;50.844;5.304;2023-03-12T00:19:10;9.70;;;6.23;;
29938;SDS011;16799;50.844;5.304;2023-03-12T00:21:37;7.00;;;6.00;;
29938;SDS011;16799;50.844;5.304;2023-03-12T00:24:04;12.17;;;6.63;;
29938;SDS011;16799;50.844;5.304;2023-03-12T00:26:31;9.80;;;6.70;;
29938;SDS011;16799;50.844;5.304;2023-03-12T00:28:57;15.23;;;6.20;;
29938;SDS011;16799;50.844;5.304;2023-03-12T00:31:26;11.63;;;6.30;;
29938;SDS011;16799;50.844;5.304;2023-03-12T00:33:56;7.30;;;5.30;;
29938;SDS011;16799;50.844;5.304;2023-03-12T00:36:24;6.93;;;5.30;;
29938;SDS011;16799;50.844;5.304;2023-03-12T00:38:51;8.97;;;5.83;;
29938;SDS011;16799;50.844;5.304;2023-03-12T00:41:17;5.07;;;4.53;;
29938;SDS011;16799;50.844;5.304;2023-03-12T00:43:44;6.43;;;5.20;;
29938;SDS011;16799;50.844;5.304;2023-03-12T00:46:11;4.40;;;4.00;;
29938;SDS011;16799;50.844;5.304;2023-03-12T00:48:36;5.50;;;4.33;;
29938;SDS011;16799;50.844;5.304;2023-03-12T00:51:02;7.83;;;5.20;;
29938;SDS011;16799;50.844;5.304;2023-03-12T00:53:28;4.30;;;3.77;;
29938;SDS011;16799;50.844;5.304;2023-03-12T00:55:54;8.77;;;5.07;;
29938;SDS011;16799;50.844;5.304;2023-03-12T00:58:20;9.60;;;4.07;;
29938;SDS011;16799;50.844;5.304;2023-03-12T01:00:45;20.13;;;5.50;;
29938;SDS011;16799;50.844;5.304;2023-03-12T01:03:11;7.47;;;3.80;;
29938;SDS011;16799;50.844;5.304;2023-03-12T01:05:37;6.73;;;4.90;;
29938;SDS011;16799;50.844;5.304;2023-03-12T01:08:05;9.53;;;4.80;;
29938;SDS011;16799;50.844;5.304;2023-03-12T01:10:31;6.40;;;4.00;;
29938;SDS011;16799;50.844;5.304;2023-03-12T01:12:57;4.53;;;4.00;;
29938;SDS011;16799;50.844;5.304;2023-03-12T01:15:22;10.03;;;4.77;;
29938;SDS011;16799;50.844;5.304;2023-03-12T01:17:48;3.63;;;2.97;;
29938;SDS011;16799;50.844;5.304;2023-03-12T01:20:14;5.10;;;3.90;;
29938;SDS011;16799;50.844;5.304;2023-03-12T01:22:39;9.60;;;3.90;;
29938;SDS011;16799;50.844;5.304;2023-03-12T01:25:05;5.33;;;3.70;;
29938;SDS011;16799;50.844;5.304;2023-03-12T01:27:31;7.80;;;3.43;;
29938;SDS011;16799;50.844;5.304;2023-03-12T01:29:57;8.60;;;3.70;;
29938;SDS011;16799;50.844;5.304;2023-03-12T01:32:22;4.77;;;4.27;;
29938;SDS011;16799;50.844;5.304;2023-03-12T01:34:48;8.77;;;4.00;;
29938;SDS011;16799;50.844;5.304;2023-03-12T01:37:14;7.20;;;3.93;;
29938;SDS011;16799;50.844;5.304;2023-03-12T01:39:39;5.50;;;3.77;;
29938;SDS011;16799;50.844;5.304;2023-03-12T01:42:05;13.03;;;3.53;;
29938;SDS011;16799;50.844;5.304;2023-03-12T01:44:47;9.10;;;3.90;;
29938;SDS011;16799;50.844;5.304;2023-03-12T01:47:23;7.43;;;3.57;;
29938;SDS011;16799;50.844;5.304;2023-03-12T01:49:51;9.07;;;2.90;;
29938;SDS011;16799;50.844;5.304;2023-03-12T01:52:26;14.93;;;3.77;;
29938;SDS011;16799;50.844;5.304;2023-03-12T01:55:02;3.47;;;3.10;;
29938;SDS011;16799;50.844;5.304;2023-03-12T01:57:33;13.03;;;3.63;;
29938;SDS011;16799;50.844;5.304;2023-03-12T02:00:10;5.00;;;3.10;;
29938;SDS011;16799;50.844;5.304;2023-03-12T02:02:42;4.37;;;3.17;;
29938;SDS011;16799;50.844;5.304;2023-03-12T02:05:14;3.50;;;3.20;;
29938;SDS011;16799;50.844;5.304;2023-03-12T02:07:42;3.90;;;3.50;;
29938;SDS011;16799;50.844;5.304;2023-03-12T02:10:07;6.00;;;3.13;;
29938;SDS011;16799;50.844;5.304;2023-03-12T02:12:33;5.30;;;2.40;;
29938;SDS011;16799;50.844;5.304;2023-03-12T02:14:59;5.23;;;2.90;;
29938;SDS011;16799;50.844;5.304;2023-03-12T02:17:25;7.13;;;2.87;;
29938;SDS011;16799;50.844;5.304;2023-03-12T02:22:33;6.03;;;2.40;;
29938;SDS011;16799;50.844;5.304;2023-03-12T02:28:03;7.40;;;2.70;;
29938;SDS011;16799;50.844;5.304;2023-03-12T02:30:31;5.50;;;2.30;;
29938;SDS011;16799;50.844;5.304;2023-03-12T02:33:01;7.43;;;2.80;;
29938;SDS011;16799;50.844;5.304;2023-03-12T02:35:31;5.97;;;2.40;;
29938;SDS011;16799;50.844;5.304;2023-03-12T02:37:57;7.37;;;2.50;;
29938;SDS011;16799;50.844;5.304;2023-03-12T02:40:28;4.00;;;2.20;;
29938;SDS011;16799;50.844;5.304;2023-03-12T02:42:57;4.70;;;2.63;;
29938;SDS011;16799;50.844;5.304;2023-03-12T02:45:24;2.93;;;1.93;;
29938;SDS011;16799;50.844;5.304;2023-03-12T02:47:51;3.73;;;1.90;;
29938;SDS011;16799;50.844;5.304;2023-03-12T02:50:17;3.53;;;2.40;;
29938;SDS011;16799;50.844;5.304;2023-03-12T02:52:43;4.10;;;2.37;;
29938;SDS011;16799;50.844;5.304;2023-03-12T02:55:08;4.17;;;2.47;;
29938;SDS011;16799;50.844;5.304;2023-03-12T02:57:34;2.63;;;2.43;;
29938;SDS011;16799;50.844;5.304;2023-03-12T03:00:03;6.33;;;3.07;;
29938;SDS011;16799;50.844;5.304;2023-03-12T03:02:30;3.93;;;2.57;;
29938;SDS011;16799;50.844;5.304;2023-03-12T03:04:56;11.40;;;4.17;;
29938;SDS011;16799;50.844;5.304;2023-03-12T03:07:22;6.23;;;3.93;;
29938;SDS011;16799;50.844;5.304;2023-03-12T03:09:47;3.57;;;3.20;;
29938;SDS011;16799;50.844;5.304;2023-03-12T03:12:13;3.97;;;2.53;;
29938;SDS011;16799;50.844;5.304;2023-03-12T03:14:39;2.70;;;2.37;;
29938;SDS011;16799;50.844;5.304;2023-03-12T03:17:04;9.00;;;3.20;;
29938;SDS011;16799;50.844;5.304;2023-03-12T03:19:30;5.90;;;3.37;;
29938;SDS011;16799;50.844;5.304;2023-03-12T03:21:56;5.80;;;3.00;;
29938;SDS011;16799;50.844;5.304;2023-03-12T03:24:21;4.83;;;2.83;;
29938;SDS011;16799;50.844;5.304;2023-03-12T03:26:47;4.97;;;3.23;;
29938;SDS011;16799;50.844;5.304;2023-03-12T03:29:13;9.90;;;3.37;;
29938;SDS011;16799;50.844;5.304;2023-03-12T03:31:39;5.37;;;3.20;;
29938;SDS011;16799;50.844;5.304;2023-03-12T03:34:04;3.10;;;2.27;;
29938;SDS011;16799;50.844;5.304;2023-03-12T03:36:30;12.90;;;3.50;;
29938;SDS011;16799;50.844;5.304;2023-03-12T03:38:56;3.80;;;2.90;;
29938;SDS011;16799;50.844;5.304;2023-03-12T03:41:21;9.03;;;3.47;;
29938;SDS011;16799;50.844;5.304;2023-03-12T03:43:47;7.60;;;2.90;;
29938;SDS011;16799;50.844;5.304;2023-03-12T03:46:13;4.23;;;3.47;;
29938;SDS011;16799;50.844;5.304;2023-03-12T03:48:39;6.23;;;3.17;;
29938;SDS011;16799;50.844;5.304;2023-03-12T03:51:06;2.40;;;2.20;;
29938;SDS011;16799;50.844;5.304;2023-03-12T03:53:33;3.57;;;3.27;;
29938;SDS011;16799;50.844;5.304;2023-03-12T03:56:06;4.53;;;4.13;;
29938;SDS011;16799;50.844;5.304;2023-03-12T03:58:34;6.30;;;3.87;;
29938;SDS011;16799;50.844;5.304;2023-03-12T04:01:00;5.77;;;3.60;;
29938;SDS011;16799;50.844;5.304;2023-03-12T04:03:26;13.57;;;4.53;;
29938;SDS011;16799;50.844;5.304;2023-03-12T04:05:53;5.43;;;3.20;;
29938;SDS011;16799;50.844;5.304;2023-03-12T04:08:23;6.60;;;4.00;;
29938;SDS011;16799;50.844;5.304;2023-03-12T04:10:48;9.07;;;3.90;;
29938;SDS011;16799;50.844;5.304;2023-03-12T04:13:14;7.37;;;4.40;;
29938;SDS011;16799;50.844;5.304;2023-03-12T04:15:51;7.80;;;3.90;;
29938;SDS011;16799;50.844;5.304;2023-03-12T04:18:17;4.77;;;3.77;;
29938;SDS011;16799;50.844;5.304;2023-03-12T04:20:44;5.27;;;3.90;;
29938;SDS011;16799;50.844;5.304;2023-03-12T04:23:09;5.23;;;3.67;;
29938;SDS011;16799;50.844;5.304;2023-03-12T04:25:35;5.67;;;3.90;;
29938;SDS011;16799;50.844;5.304;2023-03-12T04:28:02;5.53;;;3.87;;
29938;SDS011;16799;50.844;5.304;2023-03-12T04:30:28;12.83;;;5.00;;
29938;SDS011;16799;50.844;5.304;2023-03-12T04:32:54;5.67;;;5.17;;
29938;SDS011;16799;50.844;5.304;2023-03-12T04:35:19;11.33;;;4.70;;
29938;SDS011;16799;50.844;5.304;2023-03-12T04:37:45;13.87;;;5.70;;
29938;SDS011;16799;50.844;5.304;2023-03-12T04:40:11;15.50;;;6.83;;
29938;SDS011;16799;50.844;5.304;2023-03-12T04:42:38;6.00;;;4.60;;
29938;SDS011;16799;50.844;5.304;2023-03-12T04:45:04;7.63;;;5.53;;
29938;SDS011;16799;50.844;5.304;2023-03-12T04:47:31;6.50;;;3.73;;
29938;SDS011;16799;50.844;5.304;2023-03-12T04:49:58;8.50;;;5.23;;
29938;SDS011;16799;50.844;5.304;2023-03-12T04:52:24;5.43;;;4.13;;
29938;SDS011;16799;50.844;5.304;2023-03-12T04:54:50;5.17;;;3.93;;
29938;SDS011;16799;50.844;5.304;2023-03-12T04:57:17;9.37;;;3.53;;
29938;SDS011;16799;50.844;5.304;2023-03-12T04:59:43;7.90;;;4.90;;
29938;SDS011;16799;50.844;5.304;2023-03-12T05:02:08;5.53;;;4.60;;
29938;SDS011;16799;50.844;5.304;2023-03-12T05:04:34;4.93;;;4.23;;
29938;SDS011;16799;50.844;5.304;2023-03-12T05:07:00;6.03;;;3.83;;
29938;SDS011;16799;50.844;5.304;2023-03-12T05:09:26;10.90;;;3.90;;
29938;SDS011;16799;50.844;5.304;2023-03-12T05:11:51;5.07;;;4.03;;
29938;SDS011;16799;50.844;5.304;2023-03-12T05:14:17;12.97;;;3.87;;
29938;SDS011;16799;50.844;5.304;2023-03-12T05:16:43;4.83;;;3.50;;
29938;SDS011;16799;50.844;5.304;2023-03-12T05:19:09;9.43;;;4.40;;
29938;SDS011;16799;50.844;5.304;2023-03-12T05:21:34;13.93;;;5.50;;
29938;SDS011;16799;50.844;5.304;2023-03-12T05:24:00;4.30;;;3.87;;
29938;SDS011;16799;50.844;5.304;2023-03-12T05:26:30;6.23;;;3.47;;
29938;SDS011;16799;50.844;5.304;2023-03-12T05:28:57;7.53;;;4.03;;
29938;SDS011;16799;50.844;5.304;2023-03-12T05:31:26;4.07;;;3.73;;
29938;SDS011;16799;50.844;5.304;2023-03-12T05:33:57;5.30;;;4.43;;
29938;SDS011;16799;50.844;5.304;2023-03-12T05:36:23;6.27;;;4.13;;
29938;SDS011;16799;50.844;5.304;2023-03-12T05:38:49;4.00;;;3.60;;
29938;SDS011;16799;50.844;5.304;2023-03-12T05:41:17;7.00;;;4.77;;
29938;SDS011;16799;50.844;5.304;2023-03-12T05:43:47;11.37;;;5.00;;
29938;SDS011;16799;50.844;5.304;2023-03-12T05:46:13;6.70;;;4.13;;
29938;SDS011;16799;50.844;5.304;2023-03-12T05:48:38;7.00;;;4.30;;
29938;SDS011;16799;50.844;5.304;2023-03-12T05:51:04;5.70;;;5.17;;
29938;SDS011;16799;50.844;5.304;2023-03-12T05:53:30;6.67;;;4.50;;
29938;SDS011;16799;50.844;5.304;2023-03-12T05:56:01;5.60;;;4.27;;
29938;SDS011;16799;50.844;5.304;2023-03-12T05:58:32;11.43;;;5.07;;
29938;SDS011;16799;50.844;5.304;2023-03-12T06:00:58;7.90;;;5.50;;
29938;SDS011;16799;50.844;5.304;2023-03-12T06:03:24;7.13;;;4.83;;
29938;SDS011;16799;50.844;5.304;2023-03-12T06:05:50;5.53;;;4.33;;
29938;SDS011;16799;50.844;5.304;2023-03-12T06:08:19;5.33;;;4.93;;
29938;SDS011;16799;50.844;5.304;2023-03-12T06:10:46;8.97;;;4.90;;
29938;SDS011;16799;50.844;5.304;2023-03-12T06:13:11;7.03;;;4.67;;
29938;SDS011;16799;50.844;5.304;2023-03-12T06:15:37;4.30;;;4.00;;
29938;SDS011;16799;50.844;5.304;2023-03-12T06:18:03;9.53;;;5.07;;
29938;SDS011;16799;50.844;5.304;2023-03-12T06:20:28;4.17;;;3.90;;
29938;SDS011;16799;50.844;5.304;2023-03-12T06:22:54;9.40;;;4.30;;
29938;SDS011;16799;50.844;5.304;2023-03-12T06:25:20;8.33;;;4.47;;
29938;SDS011;16799;50.844;5.304;2023-03-12T06:27:45;6.90;;;4.83;;
29938;SDS011;16799;50.844;5.304;2023-03-12T06:30:11;5.40;;;4.30;;
29938;SDS011;16799;50.844;5.304;2023-03-12T06:32:37;5.03;;;4.57;;
29938;SDS011;16799;50.844;5.304;2023-03-12T06:35:03;5.23;;;4.73;;
29938;SDS011;16799;50.844;5.304;2023-03-12T06:37:30;7.47;;;6.57;;
29938;SDS011;16799;50.844;5.304;2023-03-12T06:39:55;9.30;;;5.47;;
29938;SDS011;16799;50.844;5.304;2023-03-12T06:42:21;6.27;;;5.67;;
29938;SDS011;16799;50.844;5.304;2023-03-12T06:44:48;6.03;;;5.53;;
29938;SDS011;16799;50.844;5.304;2023-03-12T06:47:14;10.83;;;6.87;;
29938;SDS011;16799;50.844;5.304;2023-03-12T06:49:39;15.33;;;7.10;;
29938;SDS011;16799;50.844;5.304;2023-03-12T06:52:05;8.03;;;7.33;;
29938;SDS011;16799;50.844;5.304;2023-03-12T06:54:31;8.50;;;6.43;;
29938;SDS011;16799;50.844;5.304;2023-03-12T06:56:57;9.23;;;6.63;;
29938;SDS011;16799;50.844;5.304;2023-03-12T06:59:25;8.43;;;7.13;;
29938;SDS011;16799;50.844;5.304;2023-03-12T07:01:52;6.73;;;6.10;;
29938;SDS011;16799;50.844;5.304;2023-03-12T07:04:18;10.63;;;6.43;;
29938;SDS011;16799;50.844;5.304;2023-03-12T07:06:43;17.00;;;7.20;;
29938;SDS011;16799;50.844;5.304;2023-03-12T07:09:14;10.07;;;7.40;;
29938;SDS011;16799;50.844;5.304;2023-03-12T07:11:40;9.13;;;7.93;;
29938;SDS011;16799;50.844;5.304;2023-03-12T07:14:06;10.00;;;8.17;;
29938;SDS011;16799;50.844;5.304;2023-03-12T07:16:32;9.43;;;8.57;;
29938;SDS011;16799;50.844;5.304;2023-03-12T07:18:58;10.23;;;8.77;;
29938;SDS011;16799;50.844;5.304;2023-03-12T07:21:24;17.73;;;9.50;;
29938;SDS011;16799;50.844;5.304;2023-03-12T07:23:50;14.63;;;9.83;;
29938;SDS011;16799;50.844;5.304;2023-03-12T07:26:16;19.10;;;9.53;;
29938;SDS011;16799;50.844;5.304;2023-03-12T07:28:43;11.03;;;8.93;;
29938;SDS011;16799;50.844;5.304;2023-03-12T07:31:09;19.00;;;10.83;;
29938;SDS011;16799;50.844;5.304;2023-03-12T07:33:34;14.60;;;10.80;;
29938;SDS011;16799;50.844;5.304;2023-03-12T07:36:00;13.30;;;10.30;;
29938;SDS011;16799;50.844;5.304;2023-03-12T07:38:26;11.73;;;9.80;;
29938;SDS011;16799;50.844;5.304;2023-03-12T07:40:54;16.87;;;11.20;;
29938;SDS011;16799;50.844;5.304;2023-03-12T07:43:21;12.83;;;10.83;;
29938;SDS011;16799;50.844;5.304;2023-03-12T07:45:48;12.20;;;10.00;;
29938;SDS011;16799;50.844;5.304;2023-03-12T07:48:14;17.30;;;11.70;;
29938;SDS011;16799;50.844;5.304;2023-03-12T07:50:41;16.83;;;11.37;;
29938;SDS011;16799;50.844;5.304;2023-03-12T07:53:07;14.53;;;10.90;;
29938;SDS011;16799;50.844;5.304;2023-03-12T07:55:33;11.43;;;10.37;;
29938;SDS011;16799;50.844;5.304;2023-03-12T07:57:59;14.20;;;11.83;;
29938;SDS011;16799;50.844;5.304;2023-03-12T08:00:25;11.20;;;10.07;;
29938;SDS011;16799;50.844;5.304;2023-03-12T08:02:52;14.53;;;11.20;;
29938;SDS011;16799;50.844;5.304;2023-03-12T08:05:18;12.70;;;10.20;;
29938;SDS011;16799;50.844;5.304;2023-03-12T08:07:44;13.33;;;11.60;;
29938;SDS011;16799;50.844;5.304;2023-03-12T08:10:10;13.33;;;10.07;;
29938;SDS011;16799;50.844;5.304;2023-03-12T08:12:36;12.33;;;10.50;;
29938;SDS011;16799;50.844;5.304;2023-03-12T08:15:05;15.67;;;10.77;;
29938;SDS011;16799;50.844;5.304;2023-03-12T08:17:32;14.87;;;12.07;;
29938;SDS011;16799;50.844;5.304;2023-03-12T08:19:58;16.30;;;11.57;;
29938;SDS011;16799;50.844;5.304;2023-03-12T08:22:24;11.57;;;9.73;;
29938;SDS011;16799;50.844;5.304;2023-03-12T08:24:50;18.57;;;9.27;;
29938;SDS011;16799;50.844;5.304;2023-03-12T08:27:15;10.03;;;9.07;;
29938;SDS011;16799;50.844;5.304;2023-03-12T08:29:41;16.53;;;8.47;;
29938;SDS011;16799;50.844;5.304;2023-03-12T08:32:07;12.03;;;8.10;;
29938;SDS011;16799;50.844;5.304;2023-03-12T08:34:37;11.47;;;9.20;;
29938;SDS011;16799;50.844;5.304;2023-03-12T08:37:03;15.00;;;9.67;;
29938;SDS011;16799;50.844;5.304;2023-03-12T08:39:30;18.40;;;11.27;;
29938;SDS011;16799;50.844;5.304;2023-03-12T08:41:56;12.43;;;9.03;;
29938;SDS011;16799;50.844;5.304;2023-03-12T08:44:23;15.17;;;9.93;;
29938;SDS011;16799;50.844;5.304;2023-03-12T08:46:49;15.50;;;9.77;;
29938;SDS011;16799;50.844;5.304;2023-03-12T08:49:15;11.80;;;8.77;;
29938;SDS011;16799;50.844;5.304;2023-03-12T08:51:41;16.10;;;8.53;;
29938;SDS011;16799;50.844;5.304;2023-03-12T08:54:07;10.07;;;8.73;;
29938;SDS011;16799;50.844;5.304;2023-03-12T08:56:33;17.83;;;8.53;;
29938;SDS011;16799;50.844;5.304;2023-03-12T08:59:01;18.23;;;9.20;;
29938;SDS011;16799;50.844;5.304;2023-03-12T09:01:27;15.67;;;8.93;;
29938;SDS011;16799;50.844;5.304;2023-03-12T09:03:52;18.90;;;8.90;;
29938;SDS011;16799;50.844;5.304;2023-03-12T09:06:19;16.60;;;10.40;;
29938;SDS011;16799;50.844;5.304;2023-03-12T09:08:45;20.83;;;9.10;;
29938;SDS011;16799;50.844;5.304;2023-03-12T09:11:12;22.20;;;10.00;;
29938;SDS011;16799;50.844;5.304;2023-03-12T09:13:39;31.63;;;12.53;;
29938;SDS011;16799;50.844;5.304;2023-03-12T09:16:06;24.63;;;11.50;;
29938;SDS011;16799;50.844;5.304;2023-03-12T09:18:32;20.83;;;10.57;;
29938;SDS011;16799;50.844;5.304;2023-03-12T09:20:59;35.27;;;14.70;;
29938;SDS011;16799;50.844;5.304;2023-03-12T09:23:25;33.50;;;12.73;;
29938;SDS011;16799;50.844;5.304;2023-03-12T09:25:51;30.93;;;13.90;;
29938;SDS011;16799;50.844;5.304;2023-03-12T09:28:18;35.87;;;16.60;;
29938;SDS011;16799;50.844;5.304;2023-03-12T09:30:44;35.33;;;14.13;;
29938;SDS011;16799;50.844;5.304;2023-03-12T09:33:10;39.03;;;14.70;;
29938;SDS011;16799;50.844;5.304;2023-03-12T09:35:37;43.90;;;15.13;;
29938;SDS011;16799;50.844;5.304;2023-03-12T09:38:03;42.67;;;13.77;;
29938;SDS011;16799;50.844;5.304;2023-03-12T09:40:30;40.67;;;15.87;;
29938;SDS011;16799;50.844;5.304;2023-03-12T09:42:58;39.80;;;16.50;;
29938;SDS011;16799;50.844;5.304;2023-03-12T09:45:56;47.60;;;16.83;;
29938;SDS011;16799;50.844;5.304;2023-03-12T09:48:35;68.43;;;19.97;;
29938;SDS011;16799;50.844;5.304;2023-03-12T09:51:05;64.70;;;18.20;;
29938;SDS011;16799;50.844;5.304;2023-03-12T09:53:52;49.97;;;16.30;;
29938;SDS011;16799;50.844;5.304;2023-03-12T09:56:20;40.10;;;15.60;;
29938;SDS011;16799;50.844;5.304;2023-03-12T09:58:47;31.10;;;14.67;;
29938;SDS011;16799;50.844;5.304;2023-03-12T10:12:24;42.33;;;14.50;;
29938;SDS011;16799;50.844;5.304;2023-03-12T10:18:34;37.87;;;12.20;;
29938;SDS011;16799;50.844;5.304;2023-03-12T10:27:00;48.07;;;9.63;;
29938;SDS011;16799;50.844;5.304;2023-03-12T10:29:33;32.47;;;10.00;;
29938;SDS011;16799;50.844;5.304;2023-03-12T10:32:10;43.07;;;10.30;;
29938;SDS011;16799;50.844;5.304;2023-03-12T10:34:54;34.67;;;9.93;;
29938;SDS011;16799;50.844;5.304;2023-03-12T10:40:03;36.07;;;9.47;;
29938;SDS011;16799;50.844;5.304;2023-03-12T10:42:30;41.90;;;11.73;;
29938;SDS011;16799;50.844;5.304;2023-03-12T10:47:41;29.43;;;8.47;;
29938;SDS011;16799;50.844;5.304;2023-03-12T10:50:13;51.73;;;9.80;;
29938;SDS011;16799;50.844;5.304;2023-03-12T10:52:47;27.30;;;9.20;;
29938;SDS011;16799;50.844;5.304;2023-03-12T10:57:45;40.00;;;9.33;;
29938;SDS011;16799;50.844;5.304;2023-03-12T11:00:16;39.43;;;10.17;;
29938;SDS011;16799;50.844;5.304;2023-03-12T11:02:45;37.87;;;9.07;;
29938;SDS011;16799;50.844;5.304;2023-03-12T11:05:23;38.67;;;10.30;;
29938;SDS011;16799;50.844;5.304;2023-03-12T11:07:50;42.93;;;10.10;;
29938;SDS011;16799;50.844;5.304;2023-03-12T11:10:18;41.73;;;9.70;;
29938;SDS011;16799;50.844;5.304;2023-03-12T11:13:05;51.63;;;12.00;;
29938;SDS011;16799;50.844;5.304;2023-03-12T11:16:38;27.73;;;7.70;;
29938;SDS011;16799;50.844;5.304;2023-03-12T11:18:57;28.80;;;7.10;;
29938;SDS011;16799;50.844;5.304;2023-03-12T11:21:26;38.70;;;8.63;;
29938;SDS011;16799;50.844;5.304;2023-03-12T11:26:22;42.47;;;7.40;;
29938;SDS011;16799;50.844;5.304;2023-03-12T11:28:50;27.00;;;7.93;;
29938;SDS011;16799;50.844;5.304;2023-03-12T11:31:40;38.87;;;8.90;;
29938;SDS011;16799;50.844;5.304;2023-03-12T11:34:20;36.30;;;8.30;;
29938;SDS011;16799;50.844;5.304;2023-03-12T11:37:06;25.00;;;8.40;;
29938;SDS011;16799;50.844;5.304;2023-03-12T11:45:03;25.30;;;7.17;;
29938;SDS011;16799;50.844;5.304;2023-03-12T11:50:27;48.80;;;7.23;;
29938;SDS011;16799;50.844;5.304;2023-03-12T11:58:51;27.00;;;7.37;;
29938;SDS011;16799;50.844;5.304;2023-03-12T12:01:23;37.03;;;7.77;;
29938;SDS011;16799;50.844;5.304;2023-03-12T12:09:08;31.43;;;6.70;;
29938;SDS011;16799;50.844;5.304;2023-03-12T12:12:00;37.70;;;7.80;;
29938;SDS011;16799;50.844;5.304;2023-03-12T12:20:16;32.97;;;7.60;;
29938;SDS011;16799;50.844;5.304;2023-03-12T12:23:13;44.07;;;8.37;;
29938;SDS011;16799;50.844;5.304;2023-03-12T12:31:18;21.67;;;7.20;;
29938;SDS011;16799;50.844;5.304;2023-03-12T12:37:17;45.23;;;7.70;;
29938;SDS011;16799;50.844;5.304;2023-03-12T12:42:55;43.50;;;9.40;;
29938;SDS011;16799;50.844;5.304;2023-03-12T12:45:41;35.07;;;7.17;;
29938;SDS011;16799;50.844;5.304;2023-03-12T12:50:41;31.80;;;7.13;;
29938;SDS011;16799;50.844;5.304;2023-03-12T12:53:13;33.83;;;9.23;;
29938;SDS011;16799;50.844;5.304;2023-03-12T12:55:43;33.40;;;8.27;;
29938;SDS011;16799;50.844;5.304;2023-03-12T12:58:41;29.57;;;7.93;;
29938;SDS011;16799;50.844;5.304;2023-03-12T13:01:41;35.27;;;7.90;;
29938;SDS011;16799;50.844;5.304;2023-03-12T13:04:11;36.73;;;8.20;;
29938;SDS011;16799;50.844;5.304;2023-03-12T13:06:54;52.03;;;8.27;;
29938;SDS011;16799;50.844;5.304;2023-03-12T13:09:43;34.93;;;8.90;;
29938;SDS011;16799;50.844;5.304;2023-03-12T13:12:33;29.10;;;6.10;;
29938;SDS011;16799;50.844;5.304;2023-03-12T13:20:20;40.67;;;8.43;;
29938;SDS011;16799;50.844;5.304;2023-03-12T13:25:40;33.53;;;8.10;;
29938;SDS011;16799;50.844;5.304;2023-03-12T13:28:30;48.20;;;8.20;;
29938;SDS011;16799;50.844;5.304;2023-03-12T13:31:00;27.13;;;6.50;;
29938;SDS011;16799;50.844;5.304;2023-03-12T13:33:45;43.03;;;8.23;;
29938;SDS011;16799;50.844;5.304;2023-03-12T13:39:42;35.07;;;7.60;;
29938;SDS011;16799;50.844;5.304;2023-03-12T13:41:39;43.63;;;9.20;;
29938;SDS011;16799;50.844;5.304;2023-03-12T13:47:02;27.93;;;7.43;;
29938;SDS011;16799;50.844;5.304;2023-03-12T13:49:41;35.00;;;7.80;;
29938;SDS011;16799;50.844;5.304;2023-03-12T13:54:42;33.23;;;7.07;;
29938;SDS011;16799;50.844;5.304;2023-03-12T13:57:19;33.37;;;6.20;;
29938;SDS011;16799;50.844;5.304;2023-03-12T13:59:48;33.80;;;8.07;;
29938;SDS011;16799;50.844;5.304;2023-03-12T14:02:23;29.90;;;6.23;;
29938;SDS011;16799;50.844;5.304;2023-03-12T14:04:52;28.37;;;7.10;;
29938;SDS011;16799;50.844;5.304;2023-03-12T14:07:29;38.00;;;6.93;;
29938;SDS011;16799;50.844;5.304;2023-03-12T14:15:36;29.67;;;6.87;;
29938;SDS011;16799;50.844;5.304;2023-03-12T14:18:14;50.33;;;8.27;;
29938;SDS011;16799;50.844;5.304;2023-03-12T14:20:57;42.10;;;8.33;;
29938;SDS011;16799;50.844;5.304;2023-03-12T14:23:27;31.90;;;5.97;;
29938;SDS011;16799;50.844;5.304;2023-03-12T14:25:59;27.93;;;6.27;;
29938;SDS011;16799;50.844;5.304;2023-03-12T14:28:26;31.47;;;6.97;;
29938;SDS011;16799;50.844;5.304;2023-03-12T14:33:22;34.73;;;8.63;;
29938;SDS011;16799;50.844;5.304;2023-03-12T14:35:52;35.43;;;6.00;;
29938;SDS011;16799;50.844;5.304;2023-03-12T14:38:29;23.47;;;6.80;;
29938;SDS011;16799;50.844;5.304;2023-03-12T14:43:53;41.03;;;7.30;;
29938;SDS011;16799;50.844;5.304;2023-03-12T14:46:26;21.27;;;7.90;;
29938;SDS011;16799;50.844;5.304;2023-03-12T14:48:52;25.60;;;5.97;;
29938;SDS011;16799;50.844;5.304;2023-03-12T14:51:22;57.30;;;9.13;;
29938;SDS011;16799;50.844;5.304;2023-03-12T14:53:50;43.03;;;6.80;;
29938;SDS011;16799;50.844;5.304;2023-03-12T14:56:27;20.77;;;5.63;;
29938;SDS011;16799;50.844;5.304;2023-03-12T14:59:00;36.63;;;7.73;;
29938;SDS011;16799;50.844;5.304;2023-03-12T15:01:44;27.20;;;6.10;;
29938;SDS011;16799;50.844;5.304;2023-03-12T15:04:14;30.23;;;6.13;;
29938;SDS011;16799;50.844;5.304;2023-03-12T15:06:44;34.83;;;7.77;;
29938;SDS011;16799;50.844;5.304;2023-03-12T15:09:16;24.30;;;5.97;;
29938;SDS011;16799;50.844;5.304;2023-03-12T15:11:45;27.43;;;6.97;;
29938;SDS011;16799;50.844;5.304;2023-03-12T15:14:19;24.43;;;6.23;;
29938;SDS011;16799;50.844;5.304;2023-03-12T15:16:46;20.43;;;5.67;;
29938;SDS011;16799;50.844;5.304;2023-03-12T15:19:13;28.00;;;6.40;;
29938;SDS011;16799;50.844;5.304;2023-03-12T15:21:42;31.30;;;6.47;;
29938;SDS011;16799;50.844;5.304;2023-03-12T15:24:09;23.87;;;6.73;;
29938;SDS011;16799;50.844;5.304;2023-03-12T15:26:37;21.33;;;6.70;;
29938;SDS011;16799;50.844;5.304;2023-03-12T15:29:14;26.70;;;6.20;;
29938;SDS011;16799;50.844;5.304;2023-03-12T15:31:56;28.67;;;6.07;;
29938;SDS011;16799;50.844;5.304;2023-03-12T15:34:33;20.50;;;5.40;;
29938;SDS011;16799;50.844;5.304;2023-03-12T15:37:18;21.73;;;5.80;;
29938;SDS011;16799;50.844;5.304;2023-03-12T15:39:49;27.70;;;5.40;;
29938;SDS011;16799;50.844;5.304;2023-03-12T15:42:17;24.53;;;6.57;;
29938;SDS011;16799;50.844;5.304;2023-03-12T15:44:48;37.50;;;5.63;;
29938;SDS011;16799;50.844;5.304;2023-03-12T15:47:18;31.67;;;6.13;;
29938;SDS011;16799;50.844;5.304;2023-03-12T15:49:51;38.17;;;5.33;;
29938;SDS011;16799;50.844;5.304;2023-03-12T15:57:26;26.60;;;7.27;;
29938;SDS011;16799;50.844;5.304;2023-03-12T16:02:38;27.23;;;5.73;;
29938;SDS011;16799;50.844;5.304;2023-03-12T16:05:10;27.43;;;6.73;;
29938;SDS011;16799;50.844;5.304;2023-03-12T16:07:36;30.00;;;6.67;;
29938;SDS011;16799;50.844;5.304;2023-03-12T16:10:02;39.13;;;6.97;;
29938;SDS011;16799;50.844;5.304;2023-03-12T16:12:28;30.87;;;6.90;;
29938;SDS011;16799;50.844;5.304;2023-03-12T16:14:54;28.93;;;6.53;;
29938;SDS011;16799;50.844;5.304;2023-03-12T16:17:21;25.10;;;4.90;;
29938;SDS011;16799;50.844;5.304;2023-03-12T16:19:47;17.40;;;4.50;;
29938;SDS011;16799;50.844;5.304;2023-03-12T16:22:13;18.03;;;5.30;;
29938;SDS011;16799;50.844;5.304;2023-03-12T16:24:39;31.67;;;6.00;;
29938;SDS011;16799;50.844;5.304;2023-03-12T16:27:04;16.63;;;5.40;;
29938;SDS011;16799;50.844;5.304;2023-03-12T16:29:40;17.70;;;5.80;;
29938;SDS011;16799;50.844;5.304;2023-03-12T16:32:13;17.33;;;5.20;;
29938;SDS011;16799;50.844;5.304;2023-03-12T16:34:40;33.87;;;5.13;;
29938;SDS011;16799;50.844;5.304;2023-03-12T16:37:09;21.73;;;5.87;;
29938;SDS011;16799;50.844;5.304;2023-03-12T16:39:36;15.63;;;5.30;;
29938;SDS011;16799;50.844;5.304;2023-03-12T16:42:02;19.23;;;4.90;;